sensor_id;sensor_type;location;lat;lon;timestamp;pressure;altitude;pressure_sealevel;temperature;humidity
83896;BME280;74045;42.812;74.638;2023-12-20T00:01:35;91917.50;;;-0.64;85.25
83896;BME280;74045;42.812;74.638;2023-12-20T00:04:04;91918.88;;;-0.66;85.29
83896;BME280;74045;42.812;74.638;2023-12-20T00:06:30;91923.75;;;-0.65;84.64
83896;BME280;74045;42.812;74.638;2023-12-20T00:08:56;91924.97;;;-0.62;84.52
83896;BME280;74045;42.812;74.638;2023-12-20T00:11:23;91918.47;;;-0.77;84.79
83896;BME280;74045;42.812;74.638;2023-12-20T00:13:49;91951.38;;;-0.60;84.95
83896;BME280;74045;42.812;74.638;2023-12-20T00:16:15;91792.44;;;-1.55;84.77
83896;BME280;74045;42.812;74.638;2023-12-20T00:18:40;91925.25;;;-0.55;85.04
83896;BME280;74045;42.812;74.638;2023-12-20T00:21:06;91931.66;;;-0.53;85.10
83896;BME280;74045;42.812;74.638;2023-12-20T00:23:32;91942.47;;;-0.51;84.39
83896;BME280;74045;42.812;74.638;2023-12-20T00:25:57;91942.47;;;-0.51;84.14
83896;BME280;74045;42.812;74.638;2023-12-20T00:28:23;91857.72;;;-1.15;84.52
83896;BME280;74045;42.812;74.638;2023-12-20T00:30:49;91943.13;;;-0.62;84.52
83896;BME280;74045;42.812;74.638;2023-12-20T00:33:14;91851.03;;;-1.24;84.47
83896;BME280;74045;42.812;74.638;2023-12-20T00:35:43;91934.28;;;-0.70;84.70
83896;BME280;74045;42.812;74.638;2023-12-20T00:38:08;91935.97;;;-0.65;85.43
83896;BME280;74045;42.812;74.638;2023-12-20T00:40:35;91937.81;;;-0.66;84.92
83896;BME280;74045;42.812;74.638;2023-12-20T00:43:01;91931.41;;;-0.69;84.61
83896;BME280;74045;42.812;74.638;2023-12-20T00:45:26;91938.88;;;-0.67;84.65
83896;BME280;74045;42.812;74.638;2023-12-20T00:47:52;91933.06;;;-0.64;84.71
83896;BME280;74045;42.812;74.638;2023-12-20T00:50:17;91858.19;;;-1.21;84.56
83896;BME280;74045;42.812;74.638;2023-12-20T00:52:43;91931.28;;;-0.72;84.89
83896;BME280;74045;42.812;74.638;2023-12-20T00:55:09;91948.34;;;-0.71;85.47
83896;BME280;74045;42.812;74.638;2023-12-20T00:57:34;91950.44;;;-0.56;84.95
83896;BME280;74045;42.812;74.638;2023-12-20T01:00:00;91859.56;;;-1.24;84.82
83896;BME280;74045;42.812;74.638;2023-12-20T01:02:26;91957.59;;;-0.53;84.87
83896;BME280;74045;42.812;74.638;2023-12-20T01:04:52;91783.97;;;-1.82;84.63
83896;BME280;74045;42.812;74.638;2023-12-20T01:07:17;91941.16;;;-0.65;85.50
83896;BME280;74045;42.812;74.638;2023-12-20T01:09:43;91792.78;;;-1.74;84.92
83896;BME280;74045;42.812;74.638;2023-12-20T01:12:09;91960.03;;;-0.56;85.32
83896;BME280;74045;42.812;74.638;2023-12-20T01:14:34;91954.09;;;-0.57;85.39
83896;BME280;74045;42.812;74.638;2023-12-20T01:17:01;91942.66;;;-0.64;85.09
83896;BME280;74045;42.812;74.638;2023-12-20T01:19:27;91866.72;;;-1.12;84.39
83896;BME280;74045;42.812;74.638;2023-12-20T01:21:53;91951.22;;;-0.64;84.25
83896;BME280;74045;42.812;74.638;2023-12-20T01:24:19;91959.63;;;-0.67;84.38
83896;BME280;74045;42.812;74.638;2023-12-20T01:26:45;91951.75;;;-0.88;84.65
83896;BME280;74045;42.812;74.638;2023-12-20T01:29:10;91896.34;;;-1.30;85.13
83896;BME280;74045;42.812;74.638;2023-12-20T01:31:36;91974.16;;;-0.75;85.25
83896;BME280;74045;42.812;74.638;2023-12-20T01:34:02;91967.16;;;-0.83;85.75
83896;BME280;74045;42.812;74.638;2023-12-20T01:36:27;91974.91;;;-0.74;86.09
83896;BME280;74045;42.812;74.638;2023-12-20T01:38:54;91986.63;;;-0.68;85.41
83896;BME280;74045;42.812;74.638;2023-12-20T01:41:20;91999.00;;;-0.65;86.03
83896;BME280;74045;42.812;74.638;2023-12-20T01:43:45;91984.34;;;-0.61;85.69
83896;BME280;74045;42.812;74.638;2023-12-20T01:46:12;91920.72;;;-1.14;85.49
83896;BME280;74045;42.812;74.638;2023-12-20T01:48:37;91958.16;;;-0.85;85.53
83896;BME280;74045;42.812;74.638;2023-12-20T01:51:04;91954.84;;;-0.95;85.31
83896;BME280;74045;42.812;74.638;2023-12-20T01:53:30;91994.25;;;-0.63;85.06
83896;BME280;74045;42.812;74.638;2023-12-20T01:55:58;92013.94;;;-0.62;nan
83896;BME280;74045;42.812;74.638;2023-12-20T01:58:25;92018.22;;;-0.66;85.99
83896;BME280;74045;42.812;74.638;2023-12-20T02:00:51;91915.72;;;-1.37;84.79
83896;BME280;74045;42.812;74.638;2023-12-20T02:03:17;92026.03;;;-0.75;85.37
83896;BME280;74045;42.812;74.638;2023-12-20T02:05:44;92034.28;;;-0.81;85.16
83896;BME280;74045;42.812;74.638;2023-12-20T02:08:10;92040.25;;;-0.81;85.61
83896;BME280;74045;42.812;74.638;2023-12-20T02:10:36;92038.09;;;-0.87;85.12
83896;BME280;74045;42.812;74.638;2023-12-20T02:13:02;92050.03;;;-0.86;85.37
83896;BME280;74045;42.812;74.638;2023-12-20T02:15:29;92063.44;;;-0.84;85.05
83896;BME280;74045;42.812;74.638;2023-12-20T02:17:55;92068.63;;;-0.84;85.75
83896;BME280;74045;42.812;74.638;2023-12-20T02:20:20;92053.22;;;-0.89;85.45
83896;BME280;74045;42.812;74.638;2023-12-20T02:22:46;92071.06;;;-0.88;84.80
83896;BME280;74045;42.812;74.638;2023-12-20T02:25:12;92086.47;;;-0.92;85.01
83896;BME280;74045;42.812;74.638;2023-12-20T02:27:38;92104.31;;;-0.99;85.45
83896;BME280;74045;42.812;74.638;2023-12-20T02:30:05;92095.31;;;-1.10;85.35
83896;BME280;74045;42.812;74.638;2023-12-20T02:32:31;92112.09;;;-0.99;85.55
83896;BME280;74045;42.812;74.638;2023-12-20T02:34:57;92112.72;;;-1.02;85.48
83896;BME280;74045;42.812;74.638;2023-12-20T02:37:23;92131.78;;;-0.98;85.67
83896;BME280;74045;42.812;74.638;2023-12-20T02:39:49;92134.38;;;-0.98;85.65
83896;BME280;74045;42.812;74.638;2023-12-20T02:42:15;92142.63;;;-0.87;85.23
83896;BME280;74045;42.812;74.638;2023-12-20T02:44:40;92144.63;;;-0.84;85.09
83896;BME280;74045;42.812;74.638;2023-12-20T02:47:06;92135.00;;;-0.83;85.04
83896;BME280;74045;42.812;74.638;2023-12-20T02:49:32;92152.09;;;-0.82;84.92
83896;BME280;74045;42.812;74.638;2023-12-20T02:51:57;92166.88;;;-0.83;85.04
83896;BME280;74045;42.812;74.638;2023-12-20T02:54:23;92156.19;;;-0.81;85.29
83896;BME280;74045;42.812;74.638;2023-12-20T02:56:48;92159.72;;;-0.86;85.49
83896;BME280;74045;42.812;74.638;2023-12-20T02:59:14;92177.72;;;-0.81;84.93
83896;BME280;74045;42.812;74.638;2023-12-20T03:01:46;92178.34;;;-0.84;85.55
83896;BME280;74045;42.812;74.638;2023-12-20T03:04:12;92114.81;;;-1.30;84.90
83896;BME280;74045;42.812;74.638;2023-12-20T03:06:38;92191.00;;;-0.82;85.12
83896;BME280;74045;42.812;74.638;2023-12-20T03:09:04;92192.06;;;-0.83;85.32
83896;BME280;74045;42.812;74.638;2023-12-20T03:11:30;92174.19;;;-0.94;85.47
83896;BME280;74045;42.812;74.638;2023-12-20T03:13:56;92201.53;;;-0.79;85.23
83896;BME280;74045;42.812;74.638;2023-12-20T03:16:23;92172.06;;;-1.09;85.08
83896;BME280;74045;42.812;74.638;2023-12-20T03:18:49;92222.72;;;-0.85;85.73
83896;BME280;74045;42.812;74.638;2023-12-20T03:21:14;92219.53;;;-0.82;85.38
83896;BME280;74045;42.812;74.638;2023-12-20T03:23:40;92189.16;;;-0.91;85.67
83896;BME280;74045;42.812;74.638;2023-12-20T03:26:09;92220.63;;;-0.66;85.70
83896;BME280;74045;42.812;74.638;2023-12-20T03:28:38;92247.34;;;-0.57;85.52
83896;BME280;74045;42.812;74.638;2023-12-20T03:31:04;92170.09;;;-0.86;85.36
83896;BME280;74045;42.812;74.638;2023-12-20T03:33:30;92231.63;;;-0.34;85.09
83896;BME280;74045;42.812;74.638;2023-12-20T03:35:55;92224.63;;;-0.25;84.54
83896;BME280;74045;42.812;74.638;2023-12-20T03:38:22;92236.94;;;0.04;84.12
83896;BME280;74045;42.812;74.638;2023-12-20T03:40:49;92228.69;;;0.11;83.51
83896;BME280;74045;42.812;74.638;2023-12-20T03:43:15;92222.25;;;0.08;83.53
83896;BME280;74045;42.812;74.638;2023-12-20T03:45:42;92246.84;;;0.28;83.47
83896;BME280;74045;42.812;74.638;2023-12-20T03:48:08;92256.44;;;0.36;83.00
83896;BME280;74045;42.812;74.638;2023-12-20T03:50:34;92247.28;;;0.30;82.91
83896;BME280;74045;42.812;74.638;2023-12-20T03:53:00;92268.81;;;0.48;82.64
83896;BME280;74045;42.812;74.638;2023-12-20T03:55:25;92262.41;;;0.46;82.19
83896;BME280;74045;42.812;74.638;2023-12-20T03:57:51;92271.25;;;0.44;82.58
83896;BME280;74045;42.812;74.638;2023-12-20T04:00:17;92254.16;;;0.35;82.18
83896;BME280;74045;42.812;74.638;2023-12-20T04:02:43;92265.63;;;0.42;82.24
83896;BME280;74045;42.812;74.638;2023-12-20T04:05:09;92264.69;;;0.47;82.32
83896;BME280;74045;42.812;74.638;2023-12-20T04:07:35;92287.78;;;0.49;81.88
83896;BME280;74045;42.812;74.638;2023-12-20T04:10:02;92286.09;;;0.44;82.19
83896;BME280;74045;42.812;74.638;2023-12-20T04:12:29;92134.06;;;-0.53;82.37
83896;BME280;74045;42.812;74.638;2023-12-20T04:14:55;92291.59;;;0.51;82.13
83896;BME280;74045;42.812;74.638;2023-12-20T04:17:20;92256.00;;;0.34;82.37
83896;BME280;74045;42.812;74.638;2023-12-20T04:19:48;92290.94;;;0.63;82.31
83896;BME280;74045;42.812;74.638;2023-12-20T04:22:15;92304.06;;;0.75;81.69
83896;BME280;74045;42.812;74.638;2023-12-20T04:24:41;92308.47;;;0.83;81.56
83896;BME280;74045;42.812;74.638;2023-12-20T04:27:09;92312.47;;;0.81;81.57
83896;BME280;74045;42.812;74.638;2023-12-20T04:29:35;92235.84;;;0.31;81.01
83896;BME280;74045;42.812;74.638;2023-12-20T04:32:01;92309.22;;;0.84;81.17
83896;BME280;74045;42.812;74.638;2023-12-20T04:34:27;92218.69;;;0.30;81.04
83896;BME280;74045;42.812;74.638;2023-12-20T04:36:53;92231.34;;;0.49;81.17
83896;BME280;74045;42.812;74.638;2023-12-20T04:39:19;92318.22;;;1.04;80.78
83896;BME280;74045;42.812;74.638;2023-12-20T04:41:44;92238.97;;;0.54;80.58
83896;BME280;74045;42.812;74.638;2023-12-20T04:44:10;92330.41;;;1.12;80.36
83896;BME280;74045;42.812;74.638;2023-12-20T04:46:36;92283.84;;;0.81;80.31
83896;BME280;74045;42.812;74.638;2023-12-20T04:49:02;92323.97;;;1.18;80.34
83896;BME280;74045;42.812;74.638;2023-12-20T04:51:27;92334.34;;;1.27;79.75
83896;BME280;74045;42.812;74.638;2023-12-20T04:53:53;92319.03;;;1.25;79.62
83896;BME280;74045;42.812;74.638;2023-12-20T04:56:19;92342.72;;;1.41;79.52
83896;BME280;74045;42.812;74.638;2023-12-20T04:58:44;92348.81;;;1.45;79.58
83896;BME280;74045;42.812;74.638;2023-12-20T05:01:10;92340.94;;;1.54;79.45
83896;BME280;74045;42.812;74.638;2023-12-20T05:03:37;92336.94;;;1.56;79.00
83896;BME280;74045;42.812;74.638;2023-12-20T05:06:02;92326.88;;;1.55;79.25
83896;BME280;74045;42.812;74.638;2023-12-20T05:08:29;92345.91;;;1.76;79.09
83896;BME280;74045;42.812;74.638;2023-12-20T05:10:54;92281.50;;;1.35;77.99
83896;BME280;74045;42.812;74.638;2023-12-20T05:13:20;92351.19;;;1.89;78.09
83896;BME280;74045;42.812;74.638;2023-12-20T05:15:46;92286.31;;;1.45;77.85
83896;BME280;74045;42.812;74.638;2023-12-20T05:18:12;92361.53;;;1.97;78.19
83896;BME280;74045;42.812;74.638;2023-12-20T05:20:38;92359.06;;;2.01;78.29
83896;BME280;74045;42.812;74.638;2023-12-20T05:23:04;92362.88;;;2.04;78.18
83896;BME280;74045;42.812;74.638;2023-12-20T05:25:30;92360.41;;;2.07;78.22
83896;BME280;74045;42.812;74.638;2023-12-20T05:27:56;92347.75;;;1.97;78.65
83896;BME280;74045;42.812;74.638;2023-12-20T05:30:21;92330.06;;;1.82;78.47
83896;BME280;74045;42.812;74.638;2023-12-20T05:32:47;92389.69;;;2.04;78.80
83896;BME280;74045;42.812;74.638;2023-12-20T05:35:13;92357.09;;;1.98;78.53
83896;BME280;74045;42.812;74.638;2023-12-20T05:37:39;92362.94;;;1.95;78.90
83896;BME280;74045;42.812;74.638;2023-12-20T05:40:05;92351.94;;;1.89;78.71
83896;BME280;74045;42.812;74.638;2023-12-20T05:42:31;92380.53;;;1.98;79.26
83896;BME280;74045;42.812;74.638;2023-12-20T05:44:57;92357.28;;;1.93;79.43
83896;BME280;74045;42.812;74.638;2023-12-20T05:47:22;92350.16;;;1.81;79.35
83896;BME280;74045;42.812;74.638;2023-12-20T05:49:48;92372.59;;;1.94;80.00
83896;BME280;74045;42.812;74.638;2023-12-20T05:52:15;92379.78;;;1.97;80.26
83896;BME280;74045;42.812;74.638;2023-12-20T05:54:41;92395.28;;;1.94;80.13
83896;BME280;74045;42.812;74.638;2023-12-20T05:57:06;92385.06;;;1.89;80.95
83896;BME280;74045;42.812;74.638;2023-12-20T05:59:32;92316.03;;;1.44;80.85
83896;BME280;74045;42.812;74.638;2023-12-20T06:01:58;92395.94;;;1.91;80.83
83896;BME280;74045;42.812;74.638;2023-12-20T06:04:23;92409.13;;;1.86;80.77
83896;BME280;74045;42.812;74.638;2023-12-20T06:06:49;92395.66;;;1.84;81.61
83896;BME280;74045;42.812;74.638;2023-12-20T06:09:15;92390.53;;;1.66;81.60
83896;BME280;74045;42.812;74.638;2023-12-20T06:11:40;92360.34;;;1.36;82.08
83896;BME280;74045;42.812;74.638;2023-12-20T06:14:06;92397.50;;;1.45;82.77
83896;BME280;74045;42.812;74.638;2023-12-20T06:16:32;92393.06;;;1.45;82.67
83896;BME280;74045;42.812;74.638;2023-12-20T06:18:57;92406.72;;;1.42;83.41
83896;BME280;74045;42.812;74.638;2023-12-20T06:21:23;92315.41;;;0.71;83.24
83896;BME280;74045;42.812;74.638;2023-12-20T06:23:49;92422.38;;;1.25;83.63
83896;BME280;74045;42.812;74.638;2023-12-20T06:26:15;92414.75;;;1.20;84.16
83896;BME280;74045;42.812;74.638;2023-12-20T06:28:41;92433.59;;;1.17;83.85
83896;BME280;74045;42.812;74.638;2023-12-20T06:31:06;92422.56;;;1.11;84.58
83896;BME280;74045;42.812;74.638;2023-12-20T06:33:32;92427.78;;;1.11;85.03
83896;BME280;74045;42.812;74.638;2023-12-20T06:35:58;92443.13;;;1.04;84.99
83896;BME280;74045;42.812;74.638;2023-12-20T06:38:23;92440.22;;;0.97;85.04
83896;BME280;74045;42.812;74.638;2023-12-20T06:40:49;92440.38;;;0.83;84.93
83896;BME280;74045;42.812;74.638;2023-12-20T06:43:15;92426.00;;;0.68;84.24
83896;BME280;74045;42.812;74.638;2023-12-20T06:45:40;92378.16;;;0.17;83.75
83896;BME280;74045;42.812;74.638;2023-12-20T06:48:07;92382.72;;;0.03;83.80
83896;BME280;74045;42.812;74.638;2023-12-20T06:50:33;92435.50;;;0.29;84.37
83896;BME280;74045;42.812;74.638;2023-12-20T06:52:59;92450.94;;;0.34;84.07
83896;BME280;74045;42.812;74.638;2023-12-20T06:55:24;92448.63;;;0.24;84.03
83896;BME280;74045;42.812;74.638;2023-12-20T06:57:50;92380.53;;;-0.30;84.28
83896;BME280;74045;42.812;74.638;2023-12-20T07:00:16;92460.22;;;0.09;85.17
83896;BME280;74045;42.812;74.638;2023-12-20T07:02:44;92464.19;;;0.07;85.49
83896;BME280;74045;42.812;74.638;2023-12-20T07:05:09;92464.63;;;0.00;84.95
83896;BME280;74045;42.812;74.638;2023-12-20T07:07:35;92471.97;;;0.07;84.03
83896;BME280;74045;42.812;74.638;2023-12-20T07:10:00;92471.50;;;-0.04;84.38
83896;BME280;74045;42.812;74.638;2023-12-20T07:12:26;92478.16;;;-0.20;85.37
83896;BME280;74045;42.812;74.638;2023-12-20T07:14:52;92481.81;;;-0.30;84.56
83896;BME280;74045;42.812;74.638;2023-12-20T07:17:18;92498.63;;;-0.28;83.99
83896;BME280;74045;42.812;74.638;2023-12-20T07:19:43;92443.19;;;-0.94;83.94
83896;BME280;74045;42.812;74.638;2023-12-20T07:22:09;92499.50;;;-0.63;85.66
83896;BME280;74045;42.812;74.638;2023-12-20T07:24:35;92509.72;;;-0.67;84.69
83896;BME280;74045;42.812;74.638;2023-12-20T07:27:01;92505.00;;;-0.87;85.26
83896;BME280;74045;42.812;74.638;2023-12-20T07:29:26;92506.56;;;-0.86;85.16
83896;BME280;74045;42.812;74.638;2023-12-20T07:31:53;92527.69;;;-0.93;86.55
83896;BME280;74045;42.812;74.638;2023-12-20T07:34:20;92532.25;;;-0.99;87.30
83896;BME280;74045;42.812;74.638;2023-12-20T07:36:46;92500.25;;;-1.17;85.84
83896;BME280;74045;42.812;74.638;2023-12-20T07:39:12;92459.75;;;-1.63;86.24
83896;BME280;74045;42.812;74.638;2023-12-20T07:41:38;92542.66;;;-1.13;86.61
83896;BME280;74045;42.812;74.638;2023-12-20T07:44:04;92549.78;;;-1.18;86.80
83896;BME280;74045;42.812;74.638;2023-12-20T07:46:30;92521.22;;;-1.41;87.03
83896;BME280;74045;42.812;74.638;2023-12-20T07:48:56;92565.06;;;-1.17;86.52
83896;BME280;74045;42.812;74.638;2023-12-20T07:51:21;92573.13;;;-1.18;86.56
83896;BME280;74045;42.812;74.638;2023-12-20T07:53:47;92566.59;;;-1.16;86.43
83896;BME280;74045;42.812;74.638;2023-12-20T07:56:17;92575.59;;;-1.13;86.11
83896;BME280;74045;42.812;74.638;2023-12-20T07:58:44;92501.81;;;-1.66;86.05
83896;BME280;74045;42.812;74.638;2023-12-20T08:01:10;92584.53;;;-1.05;85.48
83896;BME280;74045;42.812;74.638;2023-12-20T08:03:37;92599.59;;;-1.07;85.20
83896;BME280;74045;42.812;74.638;2023-12-20T08:08:49;92603.25;;;-1.08;85.92
83896;BME280;74045;42.812;74.638;2023-12-20T08:11:14;92607.09;;;-1.06;84.94
83896;BME280;74045;42.812;74.638;2023-12-20T08:13:40;92620.00;;;-1.15;86.18
83896;BME280;74045;42.812;74.638;2023-12-20T08:16:06;92626.53;;;-1.17;86.41
83896;BME280;74045;42.812;74.638;2023-12-20T08:18:31;92563.03;;;-1.56;85.58
83896;BME280;74045;42.812;74.638;2023-12-20T08:20:57;92632.06;;;-1.10;85.82
83896;BME280;74045;42.812;74.638;2023-12-20T08:23:23;92614.81;;;-1.28;86.22
83896;BME280;74045;42.812;74.638;2023-12-20T08:25:49;92645.91;;;-1.01;86.15
83896;BME280;74045;42.812;74.638;2023-12-20T08:28:15;92633.88;;;-0.97;85.63
83896;BME280;74045;42.812;74.638;2023-12-20T08:30:41;92632.63;;;-0.99;85.59
83896;BME280;74045;42.812;74.638;2023-12-20T08:33:07;92645.09;;;-0.87;85.64
83896;BME280;74045;42.812;74.638;2023-12-20T08:35:39;92634.53;;;-0.91;85.25
83896;BME280;74045;42.812;74.638;2023-12-20T08:38:05;92655.84;;;-0.80;85.04
83896;BME280;74045;42.812;74.638;2023-12-20T08:40:31;92651.00;;;-0.73;85.49
83896;BME280;74045;42.812;74.638;2023-12-20T08:42:57;92651.84;;;-0.64;84.83
83896;BME280;74045;42.812;74.638;2023-12-20T08:45:22;92632.25;;;-0.70;85.25
83896;BME280;74045;42.812;74.638;2023-12-20T08:47:48;92653.16;;;-0.53;84.56
83896;BME280;74045;42.812;74.638;2023-12-20T08:50:14;92658.09;;;-0.42;84.38
83896;BME280;74045;42.812;74.638;2023-12-20T08:52:40;92624.63;;;-0.53;84.12
83896;BME280;74045;42.812;74.638;2023-12-20T08:55:06;92638.03;;;-0.51;83.71
83896;BME280;74045;42.812;74.638;2023-12-20T08:57:32;92589.66;;;-0.92;83.73
83896;BME280;74045;42.812;74.638;2023-12-20T08:59:59;92653.81;;;-0.47;84.57
83896;BME280;74045;42.812;74.638;2023-12-20T09:02:24;92669.94;;;-0.36;83.72
83896;BME280;74045;42.812;74.638;2023-12-20T09:04:50;92663.06;;;-0.32;83.79
83896;BME280;74045;42.812;74.638;2023-12-20T09:07:23;92672.75;;;-0.24;84.02
83896;BME280;74045;42.812;74.638;2023-12-20T09:09:50;92635.59;;;-0.33;83.90
83896;BME280;74045;42.812;74.638;2023-12-20T09:12:19;92663.50;;;-0.16;84.22
83896;BME280;74045;42.812;74.638;2023-12-20T09:14:50;92671.88;;;0.03;83.51
83896;BME280;74045;42.812;74.638;2023-12-20T09:17:17;92677.81;;;0.04;83.25
83896;BME280;74045;42.812;74.638;2023-12-20T09:19:44;92436.94;;;-1.61;82.73
83896;BME280;74045;42.812;74.638;2023-12-20T09:22:10;92676.84;;;0.22;82.59
83896;BME280;74045;42.812;74.638;2023-12-20T09:24:36;92674.59;;;0.29;82.73
83896;BME280;74045;42.812;74.638;2023-12-20T09:27:02;92678.00;;;0.38;83.28
83896;BME280;74045;42.812;74.638;2023-12-20T09:29:28;92674.34;;;0.39;82.92
83896;BME280;74045;42.812;74.638;2023-12-20T09:31:54;92678.34;;;0.46;82.64
83896;BME280;74045;42.812;74.638;2023-12-20T09:34:20;92691.78;;;0.48;82.13
83896;BME280;74045;42.812;74.638;2023-12-20T09:36:46;92697.47;;;0.50;81.95
83896;BME280;74045;42.812;74.638;2023-12-20T09:39:16;92665.13;;;0.33;81.79
83896;BME280;74045;42.812;74.638;2023-12-20T09:44:23;92709.69;;;0.49;81.85
83896;BME280;74045;42.812;74.638;2023-12-20T09:46:50;92713.53;;;0.52;82.15
83896;BME280;74045;42.812;74.638;2023-12-20T09:49:19;92711.41;;;0.54;81.99
83896;BME280;74045;42.812;74.638;2023-12-20T09:51:46;92681.31;;;0.30;81.83
83896;BME280;74045;42.812;74.638;2023-12-20T09:54:16;92709.31;;;0.33;82.25
83896;BME280;74045;42.812;74.638;2023-12-20T09:56:43;92680.66;;;-0.07;82.55
83896;BME280;74045;42.812;74.638;2023-12-20T09:59:09;92712.41;;;0.13;82.75
83896;BME280;74045;42.812;74.638;2023-12-20T10:01:35;92649.50;;;-0.29;82.46
83896;BME280;74045;42.812;74.638;2023-12-20T10:04:05;92739.44;;;0.34;82.67
83896;BME280;74045;42.812;74.638;2023-12-20T10:06:44;92746.16;;;0.35;82.12
83896;BME280;74045;42.812;74.638;2023-12-20T10:09:10;92743.34;;;0.23;83.13
83896;BME280;74045;42.812;74.638;2023-12-20T10:11:37;92758.75;;;0.19;83.24
83896;BME280;74045;42.812;74.638;2023-12-20T10:14:04;92691.03;;;-0.29;82.93
83896;BME280;74045;42.812;74.638;2023-12-20T10:16:30;92765.66;;;0.24;82.80
83896;BME280;74045;42.812;74.638;2023-12-20T10:18:56;92777.03;;;0.28;83.11
83896;BME280;74045;42.812;74.638;2023-12-20T10:21:23;92763.72;;;0.30;82.77
83896;BME280;74045;42.812;74.638;2023-12-20T10:23:49;92764.47;;;0.30;83.00
83896;BME280;74045;42.812;74.638;2023-12-20T10:26:23;92756.88;;;0.34;82.84
83896;BME280;74045;42.812;74.638;2023-12-20T10:28:56;92764.47;;;0.30;82.09
83896;BME280;74045;42.812;74.638;2023-12-20T10:31:31;92758.69;;;0.33;82.42
83896;BME280;74045;42.812;74.638;2023-12-20T10:33:58;92759.28;;;0.30;81.97
83896;BME280;74045;42.812;74.638;2023-12-20T10:36:25;92742.88;;;0.21;82.41
83896;BME280;74045;42.812;74.638;2023-12-20T10:38:56;92774.47;;;0.37;82.02
83896;BME280;74045;42.812;74.638;2023-12-20T10:41:27;92635.22;;;-0.63;81.64
83896;BME280;74045;42.812;74.638;2023-12-20T10:43:56;92682.56;;;-0.21;81.93
83896;BME280;74045;42.812;74.638;2023-12-20T10:46:24;92783.16;;;0.32;82.05
83896;BME280;74045;42.812;74.638;2023-12-20T10:48:53;92778.72;;;0.33;82.13
83896;BME280;74045;42.812;74.638;2023-12-20T10:51:20;92787.28;;;0.33;81.84
83896;BME280;74045;42.812;74.638;2023-12-20T10:53:47;92739.22;;;-0.01;81.92
83896;BME280;74045;42.812;74.638;2023-12-20T10:56:17;92743.38;;;0.01;81.62
83896;BME280;74045;42.812;74.638;2023-12-20T10:58:44;92780.63;;;0.18;81.55
83896;BME280;74045;42.812;74.638;2023-12-20T11:01:16;92637.38;;;-0.79;81.85
83896;BME280;74045;42.812;74.638;2023-12-20T11:03:48;92746.81;;;-0.27;81.71
83896;BME280;74045;42.812;74.638;2023-12-20T11:06:37;92790.03;;;0.06;81.70
83896;BME280;74045;42.812;74.638;2023-12-20T11:12:13;92796.28;;;-0.09;81.95
83896;BME280;74045;42.812;74.638;2023-12-20T11:14:47;92795.63;;;-0.15;81.43
83896;BME280;74045;42.812;74.638;2023-12-20T11:17:13;92792.88;;;-0.18;81.72
83896;BME280;74045;42.812;74.638;2023-12-20T11:20:06;92793.63;;;-0.18;81.83
83896;BME280;74045;42.812;74.638;2023-12-20T11:22:32;92702.06;;;-0.82;80.99
83896;BME280;74045;42.812;74.638;2023-12-20T11:25:19;92798.34;;;-0.20;81.81
83896;BME280;74045;42.812;74.638;2023-12-20T11:28:11;92807.41;;;-0.31;81.47
83896;BME280;74045;42.812;74.638;2023-12-20T11:30:46;92799.38;;;-0.43;81.02
83896;BME280;74045;42.812;74.638;2023-12-20T11:33:15;92814.19;;;-0.44;80.65
83896;BME280;74045;42.812;74.638;2023-12-20T11:35:45;92799.56;;;-0.54;80.98
83896;BME280;74045;42.812;74.638;2023-12-20T11:38:12;92792.91;;;-0.46;80.78
83896;BME280;74045;42.812;74.638;2023-12-20T11:40:41;92795.94;;;-0.53;80.69
83896;BME280;74045;42.812;74.638;2023-12-20T11:43:07;92798.78;;;-0.54;80.40
83896;BME280;74045;42.812;74.638;2023-12-20T11:45:33;92798.72;;;-0.63;80.13
83896;BME280;74045;42.812;74.638;2023-12-20T11:48:01;92803.03;;;-0.58;80.09
83896;BME280;74045;42.812;74.638;2023-12-20T11:50:28;92802.06;;;-0.62;80.07
83896;BME280;74045;42.812;74.638;2023-12-20T11:52:55;92802.84;;;-0.62;79.71
83896;BME280;74045;42.812;74.638;2023-12-20T11:55:24;92792.66;;;-0.72;79.34
83896;BME280;74045;42.812;74.638;2023-12-20T11:57:50;92762.03;;;-0.98;79.38
83896;BME280;74045;42.812;74.638;2023-12-20T12:00:19;92809.19;;;-0.68;79.67
83896;BME280;74045;42.812;74.638;2023-12-20T12:02:58;92804.75;;;-0.81;80.01
83896;BME280;74045;42.812;74.638;2023-12-20T12:05:24;92819.19;;;-0.75;79.48
83896;BME280;74045;42.812;74.638;2023-12-20T12:07:49;92822.16;;;-0.82;79.48
83896;BME280;74045;42.812;74.638;2023-12-20T12:10:15;92818.22;;;-0.79;79.37
83896;BME280;74045;42.812;74.638;2023-12-20T12:12:41;92815.13;;;-0.81;79.18
83896;BME280;74045;42.812;74.638;2023-12-20T12:15:07;92724.94;;;-1.40;79.72
83896;BME280;74045;42.812;74.638;2023-12-20T12:17:34;92818.81;;;-0.82;80.00
83896;BME280;74045;42.812;74.638;2023-12-20T12:20:04;92736.00;;;-1.34;79.37
83896;BME280;74045;42.812;74.638;2023-12-20T12:22:30;92814.09;;;-0.80;79.76
83896;BME280;74045;42.812;74.638;2023-12-20T12:24:59;92806.69;;;-0.87;79.45
83896;BME280;74045;42.812;74.638;2023-12-20T12:27:27;92821.31;;;-0.77;79.17
83896;BME280;74045;42.812;74.638;2023-12-20T12:30:03;92786.50;;;-1.04;79.31
83896;BME280;74045;42.812;74.638;2023-12-20T12:32:29;92805.75;;;-0.91;79.36
83896;BME280;74045;42.812;74.638;2023-12-20T12:34:55;92801.31;;;-1.04;79.00
83896;BME280;74045;42.812;74.638;2023-12-20T12:37:22;92826.66;;;-1.01;79.08
83896;BME280;74045;42.812;74.638;2023-12-20T12:39:49;92808.88;;;-1.22;78.95
83896;BME280;74045;42.812;74.638;2023-12-20T12:42:14;92831.66;;;-1.05;78.78
83896;BME280;74045;42.812;74.638;2023-12-20T12:44:40;92743.72;;;-1.62;78.87
83896;BME280;74045;42.812;74.638;2023-12-20T12:47:06;92800.41;;;-1.27;79.36
83896;BME280;74045;42.812;74.638;2023-12-20T12:49:33;92830.41;;;-1.07;78.79
83896;BME280;74045;42.812;74.638;2023-12-20T12:51:59;92842.22;;;-1.01;79.09
83896;BME280;74045;42.812;74.638;2023-12-20T12:54:24;92738.66;;;-1.53;79.03
83896;BME280;74045;42.812;74.638;2023-12-20T12:56:50;92730.69;;;-1.56;78.27
83896;BME280;74045;42.812;74.638;2023-12-20T12:59:18;92807.47;;;-1.14;77.63
83896;BME280;74045;42.812;74.638;2023-12-20T13:01:44;92823.41;;;-0.93;77.23